Time;durP1;ratioP1;P1;durP2;ratioP2;P2;SDS_P1;SDS_P2;PMS_P1;PMS_P2;Temp;Humidity;BMP_temperature;BMP_pressure;BME280_temperature;BME280_humidity;BME280_pressure;Samples;Min_cycle;Max_cycle;Signal;HPM_P1;HPM_P2
2020/12/11 01:15:36;;;;;;;20.00;12.30;;;1.30;99.90;;;;;;6264189;22;20035;-94
2020/12/11 01:18:02;;;;;;;20.77;13.83;;;1.20;99.90;;;;;;6238123;23;20008;-94
2020/12/11 01:20:28;;;;;;;20.73;13.57;;;1.20;99.90;;;;;;6238215;22;20012;-94
2020/12/11 01:23:02;;;;;;;22.07;13.37;;;1.20;99.90;;;;;;6217189;22;20005;-93
2020/12/11 01:25:27;;;;;;;21.80;13.53;;;1.30;99.90;;;;;;6214903;23;20001;-93
2020/12/11 01:27:53;;;;;;;20.37;12.57;;;1.20;99.90;;;;;;6214746;23;20064;-94
2020/12/11 01:30:19;;;;;;;19.07;12.43;;;1.20;99.90;;;;;;6214561;22;20012;-94
2020/12/11 01:32:45;;;;;;;17.50;11.33;;;1.20;99.90;;;;;;6214529;23;20008;-94
2020/12/11 01:35:11;;;;;;;18.50;10.93;;;1.10;99.90;;;;;;6215106;22;20053;-93
2020/12/11 01:37:36;;;;;;;16.73;11.07;;;1.10;99.90;;;;;;6215328;23;20057;-93
2020/12/11 01:40:03;;;;;;;17.57;11.63;;;1.10;99.90;;;;;;6214511;23;19996;-93
2020/12/11 01:42:29;;;;;;;16.73;11.07;;;1.10;99.90;;;;;;6215203;22;20037;-93
2020/12/11 01:44:55;;;;;;;16.37;10.87;;;1.00;99.90;;;;;;6214617;23;20015;-94
2020/12/11 01:47:21;;;;;;;17.20;11.27;;;1.10;99.90;;;;;;6214893;23;20028;-93
2020/12/11 01:49:48;;;;;;;19.67;11.87;;;1.00;99.90;;;;;;6214481;23;20004;-94
2020/12/11 01:52:15;;;;;;;16.53;11.50;;;0.90;99.90;;;;;;6214783;23;20016;-95
2020/12/11 01:54:42;;;;;;;20.57;11.60;;;0.90;99.90;;;;;;6214818;23;20031;-93
2020/12/11 01:57:21;;;;;;;19.33;12.43;;;0.90;99.90;;;;;;6214870;23;20012;-93
2020/12/11 01:59:52;;;;;;;17.40;11.67;;;0.80;99.90;;;;;;6214961;23;20011;-93
2020/12/11 02:02:19;;;;;;;18.10;11.70;;;0.80;99.90;;;;;;6215333;23;19993;-94
2020/12/11 02:04:46;;;;;;;18.47;11.63;;;0.80;99.90;;;;;;6216266;22;20021;-94
2020/12/11 02:07:11;;;;;;;19.47;11.27;;;0.70;99.90;;;;;;6216001;22;20031;-94
2020/12/11 02:09:38;;;;;;;19.37;11.83;;;0.80;99.90;;;;;;6214224;23;20001;-93
2020/12/11 02:12:04;;;;;;;18.63;11.83;;;0.60;99.90;;;;;;6214039;23;20365;-93
2020/12/11 02:14:30;;;;;;;15.60;10.50;;;0.70;99.90;;;;;;6214453;23;20068;-93
2020/12/11 02:17:01;;;;;;;19.63;12.13;;;0.80;99.90;;;;;;6213733;23;20095;-96
2020/12/11 02:19:30;;;;;;;17.13;11.70;;;0.80;99.90;;;;;;6212526;23;19997;-94
2020/12/11 02:22:06;;;;;;;17.40;11.20;;;0.70;99.90;;;;;;6212973;23;19989;-94
2020/12/11 02:24:35;;;;;;;20.97;12.90;;;0.70;99.90;;;;;;6213112;23;20000;-94
2020/12/11 02:27:02;;;;;;;19.50;12.60;;;0.70;99.90;;;;;;6214474;22;20011;-92
2020/12/11 02:29:29;;;;;;;22.83;13.70;;;0.70;99.90;;;;;;6213716;23;20009;-93
2020/12/11 02:31:55;;;;;;;19.70;12.57;;;0.70;99.90;;;;;;6213995;22;20004;-94
2020/12/11 02:34:24;;;;;;;21.37;13.60;;;0.60;99.90;;;;;;6215028;22;19996;-94
2020/12/11 02:36:49;;;;;;;18.80;12.33;;;0.60;99.90;;;;;;6214925;22;19996;-94
2020/12/11 02:39:15;;;;;;;21.23;12.77;;;0.60;99.90;;;;;;6213487;22;19989;-94
2020/12/11 02:41:41;;;;;;;21.73;13.30;;;0.60;99.90;;;;;;6215015;22;20016;-95
2020/12/11 02:44:07;;;;;;;19.57;12.83;;;0.60;99.90;;;;;;6213973;22;19997;-95
2020/12/11 02:46:33;;;;;;;21.53;12.90;;;0.60;99.90;;;;;;6215227;23;20001;-95
2020/12/11 02:48:59;;;;;;;22.73;13.50;;;0.60;99.90;;;;;;6215864;22;19997;-94
2020/12/11 02:51:25;;;;;;;21.10;13.90;;;0.50;99.90;;;;;;6216306;22;20062;-94
2020/12/11 02:54:12;;;;;;;22.50;13.33;;;0.50;99.90;;;;;;6217040;22;19996;-95
2020/12/11 02:56:37;;;;;;;23.30;14.37;;;0.60;99.90;;;;;;6216449;22;20004;-94
2020/12/11 02:59:03;;;;;;;23.43;13.90;;;0.50;99.90;;;;;;6215426;23;20016;-94
2020/12/11 03:01:29;;;;;;;23.37;14.67;;;0.50;99.90;;;;;;6215701;23;20031;-93
2020/12/11 03:03:55;;;;;;;23.70;14.20;;;0.50;99.90;;;;;;6214131;23;20004;-94
2020/12/11 03:06:27;;;;;;;23.53;14.37;;;0.50;99.90;;;;;;6211651;23;20000;-94
2020/12/11 03:08:53;;;;;;;26.95;16.13;;;0.50;99.90;;;;;;6209347;23;20087;-93
2020/12/11 03:11:19;;;;;;;28.80;15.53;;;0.50;99.90;;;;;;6210892;23;20001;-93
2020/12/11 03:13:45;;;;;;;26.70;15.67;;;0.40;99.90;;;;;;6211108;23;20032;-94
2020/12/11 03:16:12;;;;;;;26.90;16.20;;;0.40;99.90;;;;;;6212093;23;20354;-94
2020/12/11 03:18:38;;;;;;;30.70;16.63;;;0.40;99.90;;;;;;6212838;23;20012;-93
2020/12/11 03:21:04;;;;;;;27.77;16.63;;;0.40;99.90;;;;;;6213524;23;19993;-94
2020/12/11 03:23:30;;;;;;;30.57;18.23;;;0.40;99.90;;;;;;6214413;23;20130;-94
2020/12/11 03:25:56;;;;;;;31.30;17.47;;;0.40;99.90;;;;;;6215340;22;20052;-93
2020/12/11 03:28:24;;;;;;;32.07;18.10;;;0.30;99.90;;;;;;6214793;23;20059;-94
2020/12/11 03:30:49;;;;;;;31.03;17.07;;;0.30;99.90;;;;;;6212772;23;20005;-94
2020/12/11 03:33:15;;;;;;;31.77;17.37;;;0.20;99.90;;;;;;6212908;23;20009;-93
2020/12/11 03:35:44;;;;;;;30.00;17.00;;;0.20;99.90;;;;;;6213683;23;20028;-94
2020/12/11 03:38:09;;;;;;;31.83;18.53;;;0.10;99.90;;;;;;6214056;23;20403;-94
2020/12/11 03:40:35;;;;;;;30.67;18.73;;;0.20;99.90;;;;;;6211407;23;20023;-93
2020/12/11 03:43:01;;;;;;;33.93;18.63;;;0.10;99.90;;;;;;6212604;23;20005;-95
2020/12/11 03:45:27;;;;;;;32.67;18.00;;;0.10;99.90;;;;;;6211671;23;20004;-94
2020/12/11 03:47:53;;;;;;;32.43;19.03;;;0.10;99.90;;;;;;6213787;23;20060;-93
2020/12/11 03:50:19;;;;;;;32.20;18.33;;;0.10;99.90;;;;;;6213424;23;20000;-95
2020/12/11 03:52:45;;;;;;;31.87;18.17;;;0.20;99.90;;;;;;6214678;23;20000;-94
2020/12/11 03:55:11;;;;;;;33.13;18.27;;;0.20;99.90;;;;;;6213727;23;19997;-94
2020/12/11 03:57:45;;;;;;;30.43;18.00;;;0.20;99.90;;;;;;6214957;23;20040;-94
2020/12/11 04:00:11;;;;;;;30.13;17.30;;;0.20;99.90;;;;;;6214603;23;20045;-94
2020/12/11 04:02:37;;;;;;;31.10;17.70;;;0.20;99.90;;;;;;6209737;23;20011;-94
2020/12/11 04:05:06;;;;;;;31.03;17.53;;;0.20;99.90;;;;;;6215057;23;20052;-92
2020/12/11 04:07:33;;;;;;;31.00;18.23;;;0.20;99.90;;;;;;6212887;22;20024;-93
2020/12/11 04:09:59;;;;;;;28.60;17.73;;;0.10;99.90;;;;;;6215120;22;19993;-94
2020/12/11 04:12:25;;;;;;;31.67;18.03;;;0.10;99.90;;;;;;6215389;23;20009;-93
2020/12/11 04:14:51;;;;;;;30.77;17.37;;;0.00;99.90;;;;;;6210622;22;20016;-93
2020/12/11 04:17:17;;;;;;;32.87;17.57;;;0.00;99.90;;;;;;6213007;23;20024;-94
2020/12/11 04:19:46;;;;;;;33.30;18.70;;;0.10;99.90;;;;;;6213544;23;19989;-93
2020/12/11 04:22:15;;;;;;;31.03;17.77;;;0.00;99.90;;;;;;6214441;23;20031;-94
2020/12/11 04:24:41;;;;;;;33.47;18.03;;;-0.10;99.90;;;;;;6212147;23;20009;-94
2020/12/11 04:27:10;;;;;;;32.53;17.80;;;0.00;99.90;;;;;;6213110;23;20027;-94
2020/12/11 04:29:37;;;;;;;31.20;17.93;;;0.00;99.90;;;;;;6212334;23;20040;-94
2020/12/11 04:32:08;;;;;;;33.03;17.80;;;0.00;99.90;;;;;;6211845;23;20349;-94
2020/12/11 04:34:34;;;;;;;32.63;17.37;;;0.00;99.90;;;;;;6211153;23;19988;-93
2020/12/11 04:37:00;;;;;;;32.27;18.03;;;0.00;99.90;;;;;;6211042;23;20094;-93
2020/12/11 04:39:28;;;;;;;33.53;18.20;;;0.00;99.90;;;;;;6209849;23;20001;-93
2020/12/11 04:41:57;;;;;;;31.03;17.63;;;-0.10;99.90;;;;;;6211623;23;19992;-94
2020/12/11 04:44:26;;;;;;;31.90;18.47;;;-0.10;99.90;;;;;;6213356;23;19996;-93
2020/12/11 04:46:52;;;;;;;32.50;17.70;;;-0.10;99.90;;;;;;6211587;23;20008;-94
2020/12/11 04:49:21;;;;;;;35.27;18.07;;;-0.10;99.90;;;;;;6211766;23;20000;-94
2020/12/11 04:51:51;;;;;;;33.33;17.93;;;-0.10;99.90;;;;;;6211894;23;20004;-93
2020/12/11 04:54:22;;;;;;;32.27;18.47;;;-0.20;99.90;;;;;;6213121;23;20011;-94
2020/12/11 04:56:56;;;;;;;30.87;16.63;;;-0.10;99.90;;;;;;6214254;23;20023;-93
2020/12/11 04:59:25;;;;;;;34.67;18.10;;;-0.20;99.90;;;;;;6209632;23;20281;-94
2020/12/11 05:02:01;;;;;;;31.43;18.33;;;-0.20;99.90;;;;;;6210585;23;20027;-94
2020/12/11 05:04:31;;;;;;;31.67;17.77;;;-0.30;99.90;;;;;;6211540;23;20012;-94
2020/12/11 05:06:57;;;;;;;33.10;18.40;;;-0.30;99.90;;;;;;6211116;23;19999;-94
2020/12/11 05:09:23;;;;;;;31.17;17.73;;;-0.30;99.90;;;;;;6207310;23;20000;-94
2020/12/11 05:11:48;;;;;;;31.93;17.87;;;-0.30;99.90;;;;;;6208734;23;20027;-93
2020/12/11 05:14:19;;;;;;;34.27;18.43;;;-0.40;99.90;;;;;;6202518;23;20008;-94
2020/12/11 05:16:55;;;;;;;33.17;17.97;;;-0.40;99.90;;;;;;6202476;23;20020;-95
2020/12/11 05:19:21;;;;;;;36.00;18.53;;;-0.40;99.90;;;;;;6207830;23;20001;-95
2020/12/11 05:21:47;;;;;;;40.20;18.97;;;-0.50;99.90;;;;;;6203191;23;20054;-95
2020/12/11 05:24:13;;;;;;;35.13;19.13;;;-0.50;99.90;;;;;;6203474;23;20055;-94
2020/12/11 05:26:38;;;;;;;36.10;17.43;;;-0.60;99.90;;;;;;6200602;23;20001;-94
2020/12/11 05:29:04;;;;;;;35.40;17.33;;;-0.60;99.90;;;;;;6213061;22;20009;-96
2020/12/11 05:31:30;;;;;;;31.67;16.53;;;-0.60;99.90;;;;;;6223834;22;20457;-86
2020/12/11 05:34:04;;;;;;;36.30;19.60;;;-0.60;99.90;;;;;;6247541;22;20003;-86
2020/12/11 05:36:46;;;;;;;33.27;18.17;;;-0.60;99.90;;;;;;6248245;22;20295;-86
2020/12/11 05:39:12;;;;;;;34.38;16.95;;;-0.70;99.90;;;;;;6247407;22;20004;-87
2020/12/11 05:41:38;;;;;;;36.37;18.93;;;-0.70;99.90;;;;;;6247458;22;20094;-86
2020/12/11 05:44:22;;;;;;;36.03;18.50;;;-0.70;99.90;;;;;;6248438;22;20086;-86
2020/12/11 05:46:48;;;;;;;35.13;18.07;;;-0.70;99.90;;;;;;6247762;22;20325;-87
2020/12/11 05:49:25;;;;;;;33.83;17.67;;;-0.70;99.90;;;;;;6246568;22;20042;-87
2020/12/11 05:52:10;;;;;;;35.17;18.30;;;-0.70;99.90;;;;;;6247739;22;20000;-87
2020/12/11 05:54:46;;;;;;;36.20;18.70;;;-0.70;99.90;;;;;;6247510;22;20095;-87
2020/12/11 05:57:15;;;;;;;36.00;18.30;;;-0.80;99.90;;;;;;6247318;22;20004;-86
2020/12/11 05:59:42;;;;;;;37.93;18.90;;;-0.70;99.90;;;;;;6274834;22;20322;-86
2020/12/11 06:02:09;;;;;;;36.57;19.07;;;-0.70;99.90;;;;;;6247390;22;20050;-86
2020/12/11 06:04:35;;;;;;;34.27;18.13;;;-0.70;99.90;;;;;;6247191;22;20004;-86
2020/12/11 06:07:01;;;;;;;36.27;17.87;;;-0.70;99.90;;;;;;6247670;22;20004;-86
2020/12/11 06:09:35;;;;;;;35.60;18.43;;;-0.70;99.90;;;;;;6247245;22;20058;-87
2020/12/11 06:12:03;;;;;;;34.33;17.80;;;-0.70;99.90;;;;;;6247745;22;20007;-86
2020/12/11 06:14:42;;;;;;;36.13;17.63;;;-0.70;99.90;;;;;;6244819;22;20014;-86
2020/12/11 06:17:10;;;;;;;36.57;18.90;;;-0.70;99.90;;;;;;6247878;22;20030;-86
2020/12/11 06:19:39;;;;;;;35.07;18.57;;;-0.70;99.90;;;;;;6247776;22;20094;-86
2020/12/11 06:22:08;;;;;;;32.87;17.67;;;-0.70;99.90;;;;;;6247692;22;20030;-85
2020/12/11 06:24:35;;;;;;;31.73;17.17;;;-0.70;99.90;;;;;;6247513;22;20004;-86
2020/12/11 06:27:03;;;;;;;32.50;16.20;;;-0.70;99.90;;;;;;6248275;22;20151;-86
2020/12/11 06:29:40;;;;;;;32.70;17.00;;;-0.70;99.90;;;;;;6248666;22;20083;-85
2020/12/11 06:32:10;;;;;;;31.27;16.60;;;-0.70;99.90;;;;;;6247528;22;20457;-85
2020/12/11 06:34:36;;;;;;;38.00;18.07;;;-0.70;99.90;;;;;;6250145;22;20448;-86
2020/12/11 06:37:03;;;;;;;34.07;16.93;;;-0.60;99.90;;;;;;6250261;22;20004;-86
2020/12/11 06:39:41;;;;;;;33.37;17.63;;;-0.70;99.90;;;;;;6263518;22;20003;-85
2020/12/11 06:42:30;;;;;;;34.77;17.73;;;-0.70;99.90;;;;;;6249208;22;20027;-85
2020/12/11 06:45:22;;;;;;;31.80;15.93;;;-0.70;99.90;;;;;;6247047;22;20004;-86
2020/12/11 06:47:56;;;;;;;32.27;17.90;;;-0.70;99.90;;;;;;6249498;22;20004;-86
2020/12/11 06:50:27;;;;;;;32.70;17.20;;;-0.70;99.90;;;;;;6249906;22;20027;-85
2020/12/11 06:52:55;;;;;;;34.63;17.67;;;-0.70;99.90;;;;;;6249310;22;20422;-85
2020/12/11 06:55:21;;;;;;;33.10;17.90;;;-0.70;99.90;;;;;;6245908;22;20004;-85
2020/12/11 06:57:48;;;;;;;33.07;16.60;;;-0.80;99.90;;;;;;6276400;22;20004;-86
2020/12/11 07:00:25;;;;;;;35.20;17.97;;;-0.80;99.90;;;;;;6275832;22;20000;-85
2020/12/11 07:03:17;;;;;;;31.90;17.17;;;-0.70;99.90;;;;;;6247031;22;20004;-85
2020/12/11 07:05:44;;;;;;;25.52;12.25;;;-0.70;99.90;;;;;;6247094;22;20083;-85
2020/12/11 07:08:15;;;;;;;28.50;15.73;;;-0.70;99.90;;;;;;6248217;22;20011;-86
2020/12/11 07:10:43;;;;;;;32.03;16.97;;;-0.70;99.90;;;;;;6248017;22;20006;-86
2020/12/11 07:13:10;;;;;;;32.97;17.30;;;-0.70;99.90;;;;;;6275279;22;19995;-85
2020/12/11 07:15:39;;;;;;;32.57;17.10;;;-0.80;99.90;;;;;;6249161;22;20014;-86
2020/12/11 07:18:16;;;;;;;31.60;17.07;;;-0.80;99.90;;;;;;6250925;22;20011;-85
2020/12/11 07:20:53;;;;;;;33.17;17.47;;;-0.80;99.90;;;;;;6250082;22;20082;-86
2020/12/11 07:23:19;;;;;;;33.37;17.10;;;-0.80;99.90;;;;;;6250055;22;20000;-88
2020/12/11 07:25:49;;;;;;;35.13;17.43;;;-0.80;99.90;;;;;;6247365;22;20082;-85
2020/12/11 07:28:15;;;;;;;32.50;16.77;;;-0.80;99.90;;;;;;6248087;22;20008;-85
2020/12/11 07:30:43;;;;;;;34.50;17.30;;;-0.80;99.90;;;;;;6249910;22;20365;-86
2020/12/11 07:33:10;;;;;;;32.73;17.83;;;-0.90;99.90;;;;;;6252468;22;20339;-86
2020/12/11 07:35:37;;;;;;;33.07;18.03;;;-0.90;99.90;;;;;;6253251;22;20046;-85
2020/12/11 07:38:04;;;;;;;34.57;17.73;;;-0.90;99.90;;;;;;6252619;22;20010;-86
2020/12/11 07:40:30;;;;;;;34.13;17.20;;;-0.90;99.90;;;;;;6280039;22;20008;-85
2020/12/11 07:42:56;;;;;;;32.40;17.87;;;-0.80;99.90;;;;;;6252152;22;20397;-85
2020/12/11 07:45:26;;;;;;;33.83;16.50;;;-0.80;99.90;;;;;;6253311;22;20007;-85
2020/12/11 07:47:53;;;;;;;33.67;17.03;;;-0.80;99.90;;;;;;6280994;22;20000;-85
2020/12/11 07:50:21;;;;;;;29.90;16.20;;;-0.80;99.90;;;;;;6251847;22;20015;-86
2020/12/11 07:52:47;;;;;;;34.17;17.97;;;-0.80;99.90;;;;;;6252982;22;20362;-84
2020/12/11 07:55:13;;;;;;;37.83;19.27;;;-0.80;99.90;;;;;;6252906;22;20083;-86
2020/12/11 07:57:39;;;;;;;34.37;17.70;;;-0.70;99.90;;;;;;6280580;22;20003;-85
2020/12/11 08:00:06;;;;;;;31.57;17.10;;;-0.70;99.90;;;;;;6278815;22;19999;-84
2020/12/11 08:02:34;;;;;;;35.07;17.67;;;-0.70;99.90;;;;;;6277634;22;20015;-89
2020/12/11 08:05:04;;;;;;;34.13;18.00;;;-0.70;99.90;;;;;;6249549;22;20430;-89
2020/12/11 08:07:31;;;;;;;34.70;18.90;;;-0.60;99.90;;;;;;6249926;22;20105;-89
2020/12/11 08:10:33;;;;;;;36.37;18.63;;;-0.60;99.90;;;;;;6248619;22;20003;-89
2020/12/11 08:13:10;;;;;;;34.38;17.83;;;-0.50;99.90;;;;;;6229552;22;20062;-90
2020/12/11 08:15:37;;;;;;;32.93;17.53;;;-0.40;99.90;;;;;;6248747;22;20011;-90
2020/12/11 08:18:13;;;;;;;37.37;19.30;;;-0.30;99.90;;;;;;6249480;22;20518;-89
2020/12/11 08:20:48;;;;;;;32.17;17.60;;;-0.30;99.90;;;;;;6249601;22;20008;-89
2020/12/11 08:23:23;;;;;;;30.93;16.87;;;-0.30;99.90;;;;;;6249201;22;20011;-89
2020/12/11 08:26:13;;;;;;;33.57;17.80;;;-0.30;99.90;;;;;;6248904;22;20030;-90
2020/12/11 08:28:39;;;;;;;33.00;16.20;;;-0.30;99.90;;;;;;6249269;22;20004;-89
2020/12/11 08:31:23;;;;;;;32.23;16.87;;;-0.30;99.90;;;;;;6249351;22;20007;-89
2020/12/11 08:33:51;;;;;;;35.53;18.27;;;-0.30;99.90;;;;;;6249299;22;20087;-89
2020/12/11 08:36:28;;;;;;;31.30;16.57;;;-0.30;99.90;;;;;;6249456;22;20014;-90
2020/12/11 08:39:14;;;;;;;32.40;17.27;;;-0.30;99.90;;;;;;6248633;22;20022;-89
2020/12/11 08:41:55;;;;;;;34.47;17.20;;;-0.30;99.90;;;;;;6249391;22;20015;-90
2020/12/11 08:50:32;;;;;;;30.67;15.57;;;-0.10;99.90;;;;;;6182429;23;19997;-89
2020/12/11 08:52:53;;;;;;;30.70;15.63;;;-0.10;99.90;;;;;;6271329;22;19995;-89
2020/12/11 08:55:18;;;;;;;30.40;16.53;;;0.00;99.90;;;;;;6248630;22;20064;-90
2020/12/11 08:57:44;;;;;;;29.97;15.33;;;0.00;99.90;;;;;;6248973;22;20004;-89
2020/12/11 09:00:10;;;;;;;31.43;16.17;;;0.10;99.90;;;;;;6248646;22;20010;-90
2020/12/11 09:02:37;;;;;;;31.50;16.57;;;0.10;99.90;;;;;;6249548;22;20014;-90
2020/12/11 09:05:03;;;;;;;29.93;15.33;;;0.10;99.90;;;;;;6248876;22;20003;-90
2020/12/11 09:07:29;;;;;;;28.90;15.40;;;0.20;99.90;;;;;;6249700;22;20054;-90
2020/12/11 09:09:54;;;;;;;32.30;17.07;;;0.30;99.90;;;;;;6249349;22;20401;-91
2020/12/11 09:12:20;;;;;;;34.03;15.70;;;0.50;99.90;;;;;;6250164;22;20000;-92
2020/12/11 09:14:46;;;;;;;31.03;15.87;;;0.60;99.90;;;;;;6249281;22;20047;-91
2020/12/11 09:17:11;;;;;;;27.80;15.30;;;0.70;99.90;;;;;;6250150;22;20003;-91
2020/12/11 09:19:37;;;;;;;29.43;14.90;;;0.80;99.90;;;;;;6249531;22;20334;-91
2020/12/11 09:22:03;;;;;;;28.07;15.13;;;1.00;99.90;;;;;;6249506;22;20008;-91
2020/12/11 09:24:28;;;;;;;29.13;15.93;;;1.00;99.90;;;;;;6249932;22;19999;-92
2020/12/11 09:26:55;;;;;;;27.80;14.83;;;1.00;99.90;;;;;;6249489;22;20027;-92
2020/12/11 09:29:29;;;;;;;26.73;14.30;;;1.20;99.90;;;;;;6250034;22;19996;-92
2020/12/11 09:31:57;;;;;;;27.53;14.43;;;1.20;99.90;;;;;;6250414;22;20031;-91
2020/12/11 09:34:23;;;;;;;25.90;14.07;;;1.20;99.90;;;;;;6251006;22;20008;-92
2020/12/11 09:36:48;;;;;;;24.30;13.80;;;1.30;99.90;;;;;;6250740;22;20016;-92
2020/12/11 09:39:15;;;;;;;25.87;14.23;;;1.30;99.90;;;;;;6251762;22;20004;-92
2020/12/11 09:41:47;;;;;;;24.40;14.20;;;1.30;99.90;;;;;;6251604;22;20334;-92
2020/12/11 09:49:39;;;;;;;25.33;12.87;;;1.40;99.90;;;;;;6290067;22;20033;-92
2020/12/11 09:52:33;;;;;;;24.77;13.27;;;1.40;99.90;;;;;;6252019;22;20075;-91
2020/12/11 09:54:59;;;;;;;21.93;11.57;;;1.40;99.90;;;;;;6252266;22;20078;-92
2020/12/11 09:57:25;;;;;;;21.83;11.83;;;1.50;99.90;;;;;;6253130;22;20014;-91
2020/12/11 09:59:54;;;;;;;21.40;11.70;;;1.60;99.90;;;;;;6251121;22;20057;-93
2020/12/11 10:05:10;;;;;;;21.00;11.90;;;1.60;99.90;;;;;;6288140;22;20065;-92
2020/12/11 10:07:46;;;;;;;20.95;11.98;;;1.60;99.90;;;;;;6251898;22;20004;-92
2020/12/11 10:10:15;;;;;;;21.00;11.47;;;1.70;99.90;;;;;;6252585;22;20042;-92
2020/12/11 10:13:06;;;;;;;20.70;11.30;;;1.80;99.90;;;;;;6254394;22;20264;-92
2020/12/11 10:15:34;;;;;;;15.75;8.45;;;1.90;99.90;;;;;;6257792;22;20030;-92
2020/12/11 10:18:04;;;;;;;19.43;11.07;;;2.00;99.90;;;;;;6260333;22;20498;-93
2020/12/11 10:20:30;;;;;;;18.33;10.27;;;2.20;99.90;;;;;;6264826;22;20011;-93
2020/12/11 10:23:07;;;;;;;18.80;11.27;;;2.20;99.90;;;;;;6270243;22;20026;-93
2020/12/11 10:25:35;;;;;;;20.90;12.03;;;2.30;99.90;;;;;;6271626;22;20134;-91
2020/12/11 10:28:21;;;;;;;20.67;10.90;;;2.30;99.90;;;;;;6271670;22;20011;-92
2020/12/11 10:31:24;;;;;;;20.40;11.23;;;2.30;99.90;;;;;;6269392;22;20007;-92
2020/12/11 10:33:55;;;;;;;19.77;11.07;;;2.40;99.90;;;;;;6258051;22;20050;-91
2020/12/11 10:40:48;;;;;;;18.90;10.70;;;2.40;99.90;;;;;;6184886;23;20252;-91
2020/12/11 10:44:09;;;;;;;;;;;;;;;;;;;;;
2020/12/11 10:47:29;;;;;;;;;;;;;;;;;;;;;
2020/12/11 10:50:34;;;;;;;;;;;;;;;;;;;;;
2020/12/11 10:58:26;;;;;;;;;;;;;;;;;;;;;
2020/12/11 11:01:58;;;;;;;19.27;10.83;;;2.30;99.90;;;;;;6041377;23;20047;-91
2020/12/11 11:27:45;;;;;;;18.40;10.67;;;2.70;99.90;;;;;;6316716;22;20003;-95
2020/12/11 11:30:11;;;;;;;19.40;10.90;;;2.70;99.90;;;;;;6338348;22;19983;-95
2020/12/11 11:32:37;;;;;;;18.37;10.87;;;2.80;99.90;;;;;;6340434;22;20011;-95
2020/12/11 11:35:04;;;;;;;17.30;10.50;;;2.90;99.90;;;;;;6337801;22;20014;-94
2020/12/11 11:37:29;;;;;;;18.43;10.63;;;2.90;99.90;;;;;;6338592;22;19995;-95
2020/12/11 11:39:55;;;;;;;18.70;10.77;;;2.80;99.90;;;;;;6339051;22;20066;-94
2020/12/11 11:42:22;;;;;;;17.83;11.07;;;2.70;99.90;;;;;;6339450;22;19994;-96
2020/12/11 11:44:56;;;;;;;18.40;10.77;;;2.80;99.90;;;;;;6339517;22;20054;-95
2020/12/11 11:47:23;;;;;;;19.83;11.03;;;2.70;99.90;;;;;;6339902;22;20007;-95
2020/12/11 11:54:58;;;;;;;18.77;11.27;;;2.60;99.90;;;;;;6377283;22;20264;-95
2020/12/11 11:57:26;;;;;;;20.87;11.13;;;2.60;99.90;;;;;;6340129;22;19991;-96
2020/12/11 16:03:15;;;;;;;20.07;11.97;;;2.20;99.90;;;;;;6314124;22;20003;-95
2020/12/11 16:05:41;;;;;;;21.27;12.47;;;2.20;99.90;;;;;;6306459;22;20003;-93
2020/12/11 16:08:07;;;;;;;26.00;13.67;;;2.20;99.90;;;;;;6306662;22;20037;-94
2020/12/11 16:10:33;;;;;;;22.43;12.57;;;2.20;99.90;;;;;;6306243;22;20011;-93
2020/12/11 16:12:58;;;;;;;20.57;11.73;;;2.20;99.90;;;;;;6302541;22;20013;-95
2020/12/11 16:15:24;;;;;;;21.77;10.73;;;2.20;99.90;;;;;;6306656;22;20021;-95
2020/12/11 16:17:50;;;;;;;22.30;11.17;;;2.20;99.90;;;;;;6305291;22;20003;-95
2020/12/11 16:20:17;;;;;;;20.17;11.50;;;2.20;99.90;;;;;;6302684;22;20021;-95
2020/12/11 16:22:43;;;;;;;20.73;11.50;;;2.20;99.90;;;;;;6306009;22;19992;-94
2020/12/11 16:25:08;;;;;;;22.33;11.73;;;2.20;99.90;;;;;;6302083;22;20011;-94
2020/12/11 16:27:35;;;;;;;19.23;10.93;;;2.20;99.90;;;;;;6306483;22;19998;-94
2020/12/11 16:30:02;;;;;;;20.43;11.70;;;2.20;99.90;;;;;;6306448;22;20049;-95
2020/12/11 16:32:33;;;;;;;23.50;11.43;;;2.20;99.90;;;;;;6306318;22;20026;-96
2020/12/11 16:34:59;;;;;;;24.27;12.17;;;2.20;99.90;;;;;;6306343;22;20047;-95
2020/12/11 16:37:25;;;;;;;22.03;11.80;;;2.20;99.90;;;;;;6306752;22;20007;-95
2020/12/11 16:39:51;;;;;;;21.63;11.27;;;2.20;99.90;;;;;;6306057;22;20011;-94
2020/12/11 16:42:17;;;;;;;20.63;11.27;;;2.10;99.90;;;;;;6306678;22;20003;-94
2020/12/11 16:47:11;;;;;;;21.07;10.13;;;2.10;99.90;;;;;;6333909;22;19996;-94
2020/12/11 17:12:55;;;;;;;17.20;9.47;;;2.10;99.90;;;;;;6247181;22;20263;-82
2020/12/11 17:15:21;;;;;;;15.30;9.27;;;2.20;99.90;;;;;;6269370;22;19999;-84
2020/12/11 17:17:47;;;;;;;16.00;8.80;;;2.20;99.90;;;;;;6272938;22;20058;-85
2020/12/11 17:20:13;;;;;;;21.20;9.93;;;2.20;99.90;;;;;;6272386;22;20003;-83
2020/12/11 17:22:39;;;;;;;20.70;9.63;;;2.20;99.90;;;;;;6272898;22;20015;-84
2020/12/11 17:25:06;;;;;;;18.57;9.13;;;2.30;99.90;;;;;;6273567;22;20010;-84
2020/12/11 17:27:36;;;;;;;18.60;9.93;;;2.20;99.90;;;;;;6248693;22;20010;-83
2020/12/11 17:30:37;;;;;;;19.80;10.20;;;2.20;99.90;;;;;;6247646;22;20439;-83
2020/12/11 17:35:18;;;;;;;17.83;9.60;;;2.30;99.90;;;;;;6272919;22;20039;-83
2020/12/11 17:37:45;;;;;;;19.47;9.60;;;2.30;99.90;;;;;;6275177;22;20011;-85
2020/12/11 17:40:11;;;;;;;16.57;9.27;;;2.30;99.90;;;;;;6245030;22;20007;-81
2020/12/11 17:42:37;;;;;;;16.70;9.43;;;2.30;99.90;;;;;;6275013;22;20004;-83
2020/12/11 17:45:03;;;;;;;16.63;9.90;;;2.30;99.90;;;;;;6275896;22;20449;-84
2020/12/11 17:47:30;;;;;;;17.83;9.70;;;2.30;99.90;;;;;;6276961;22;20003;-84
2020/12/11 17:49:56;;;;;;;26.03;10.00;;;2.30;99.90;;;;;;6246440;22;20008;-84
2020/12/11 17:52:22;;;;;;;21.00;10.73;;;2.30;99.90;;;;;;6274744;22;20000;-84
2020/12/11 17:54:48;;;;;;;19.40;10.63;;;2.30;99.90;;;;;;6275547;22;20007;-84
2020/12/11 17:57:13;;;;;;;16.23;9.63;;;2.30;99.90;;;;;;6277119;22;20077;-84
2020/12/11 17:59:39;;;;;;;24.13;10.50;;;2.30;99.90;;;;;;6277321;22;20007;-83
2020/12/11 18:02:05;;;;;;;20.50;10.00;;;2.30;99.90;;;;;;6275029;22;19995;-82
2020/12/11 18:04:30;;;;;;;22.90;10.20;;;2.40;99.90;;;;;;6247903;22;20341;-83
2020/12/11 18:06:56;;;;;;;18.60;10.43;;;2.40;99.90;;;;;;6239942;22;20000;-85
2020/12/11 18:09:23;;;;;;;23.23;11.50;;;2.40;99.90;;;;;;6273530;22;19996;-82
2020/12/11 18:14:19;;;;;;;17.40;9.70;;;2.50;99.90;;;;;;6273750;22;20020;-82
2020/12/11 18:16:49;;;;;;;22.57;10.13;;;2.50;99.90;;;;;;6281923;22;20007;-83
2020/12/11 18:19:16;;;;;;;19.10;10.23;;;2.60;99.90;;;;;;6260708;22;20071;-86
2020/12/11 18:21:45;;;;;;;17.17;10.03;;;2.60;99.90;;;;;;6285767;22;20004;-86
2020/12/11 18:24:14;;;;;;;18.63;10.63;;;2.60;99.90;;;;;;6249666;23;20004;-86
2020/12/11 18:26:47;;;;;;;18.43;10.13;;;2.60;99.90;;;;;;6247049;23;20011;-84
2020/12/11 18:29:12;;;;;;;;;;;2.70;99.90;;;;;;6243822;23;20024;-84
2020/12/11 18:31:38;;;;;;;18.67;10.47;;;2.60;99.90;;;;;;6239586;23;19906;-86
2020/12/11 18:34:04;;;;;;;19.60;9.80;;;2.70;99.90;;;;;;6242717;23;20001;-84
2020/12/11 18:36:30;;;;;;;19.20;10.23;;;2.70;99.90;;;;;;6221735;23;20095;-86
2020/12/11 18:38:56;;;;;;;18.87;10.33;;;2.70;99.90;;;;;;6250954;23;20000;-85
2020/12/11 18:41:24;;;;;;;19.77;10.10;;;2.70;99.90;;;;;;6253918;23;20143;-84
2020/12/11 18:43:49;;;;;;;17.30;10.00;;;2.70;99.90;;;;;;6252728;23;20069;-85
2020/12/11 18:46:16;;;;;;;18.93;10.37;;;2.70;99.90;;;;;;6222254;23;20023;-85
2020/12/11 18:48:42;;;;;;;17.90;10.07;;;2.70;99.90;;;;;;6254065;23;20052;-84
2020/12/11 18:51:08;;;;;;;17.43;9.83;;;2.70;99.90;;;;;;6269130;22;20008;-86
2020/12/11 18:53:34;;;;;;;17.23;9.70;;;2.80;99.90;;;;;;6264620;23;20054;-85
2020/12/11 18:56:08;;;;;;;17.43;9.73;;;2.80;99.90;;;;;;6254775;23;20339;-84
2020/12/11 18:58:33;;;;;;;19.53;10.33;;;2.80;99.90;;;;;;6252237;23;20012;-84
2020/12/11 19:00:59;;;;;;;18.60;10.30;;;2.80;99.90;;;;;;6246291;23;20008;-86
2020/12/11 19:03:25;;;;;;;17.00;9.80;;;2.80;99.90;;;;;;6253941;23;20000;-86
2020/12/11 19:05:59;;;;;;;15.87;9.23;;;2.80;99.90;;;;;;6250259;23;20477;-86
2020/12/11 19:08:27;;;;;;;16.23;9.93;;;2.80;99.90;;;;;;6246194;23;20073;-87
2020/12/11 19:10:59;;;;;;;18.00;9.97;;;2.80;99.90;;;;;;6250908;23;20008;-87
2020/12/11 19:13:25;;;;;;;17.37;9.40;;;2.80;99.90;;;;;;6244827;23;20015;-84
2020/12/11 19:15:53;;;;;;;18.30;10.03;;;2.80;99.90;;;;;;6251045;23;20047;-84
2020/12/11 19:18:19;;;;;;;19.40;10.90;;;2.80;99.90;;;;;;6251117;23;20020;-85
2020/12/11 19:20:45;;;;;;;19.27;9.93;;;2.80;99.90;;;;;;6252766;23;20060;-84
2020/12/11 19:23:11;;;;;;;18.83;10.27;;;2.80;99.90;;;;;;6250851;23;20004;-85
2020/12/11 19:25:36;;;;;;;17.87;10.10;;;2.70;99.90;;;;;;6225103;23;20015;-85
2020/12/11 19:28:02;;;;;;;16.93;10.13;;;2.80;99.90;;;;;;6226722;23;20027;-85
2020/12/11 19:30:28;;;;;;;21.20;10.37;;;2.70;99.90;;;;;;6252564;23;20417;-84
2020/12/11 19:32:55;;;;;;;17.40;10.30;;;2.80;99.90;;;;;;6258035;23;20415;-84